createdAt,value
2023-02-07T00:00:05.394Z,101373.64
2023-02-07T00:07:40.411Z,101364.27
2023-02-07T00:15:18.406Z,101360.89
2023-02-07T00:19:07.512Z,101355.56
2023-02-07T00:23:06.505Z,101352.27
2023-02-07T00:34:39.328Z,101337.77
2023-02-07T00:38:44.242Z,101334.92
2023-02-07T00:42:26.457Z,101335.02
2023-02-07T00:46:11.337Z,101334.02
2023-02-07T00:49:55.366Z,101332.25
2023-02-07T00:53:40.317Z,101324.83
2023-02-07T00:57:38.425Z,101323.61
2023-02-07T01:01:32.775Z,101320.03
2023-02-07T01:12:54.934Z,101322.16
2023-02-07T01:16:38.445Z,101328.45
2023-02-07T01:20:38.471Z,101325.56
2023-02-07T01:24:30.406Z,101329.98
2023-02-07T01:28:20.731Z,101336.37
2023-02-07T01:32:04.436Z,101341.02
2023-02-07T01:35:48.385Z,101341.30
2023-02-07T01:39:28.241Z,101340.66
2023-02-07T01:43:17.482Z,101334.81
2023-02-07T01:46:58.535Z,101335.77
2023-02-07T01:50:45.432Z,101335.06
2023-02-07T01:54:25.528Z,101327.45
2023-02-07T02:06:15.424Z,101336.60
2023-02-07T02:09:59.468Z,101337.96
2023-02-07T02:14:03.282Z,101340.10
2023-02-07T02:18:05.567Z,101350.73
2023-02-07T02:21:56.437Z,101349.09
2023-02-07T02:25:55.564Z,101350.39
2023-02-07T02:30:06.425Z,101349.73
2023-02-07T02:34:03.608Z,101353.40
2023-02-07T02:38:06.476Z,101356.60
2023-02-07T02:41:58.496Z,101357.64
2023-02-07T02:46:06.520Z,101353.54
2023-02-07T02:50:11.602Z,101350.85
2023-02-07T02:54:06.599Z,101356.72
2023-02-07T02:57:51.480Z,101361.74
2023-02-07T03:01:46.667Z,101359.77
2023-02-07T03:05:38.667Z,101367.09
2023-02-07T03:09:31.498Z,101367.44
2023-02-07T03:13:14.443Z,101364.32
2023-02-07T03:17:00.487Z,101360.70
2023-02-07T03:24:54.483Z,101352.66
2023-02-07T03:32:42.694Z,101353.48
2023-02-07T03:40:27.480Z,101358.18
2023-02-07T03:47:55.530Z,101369.10
2023-02-07T03:51:52.882Z,101375.57
2023-02-07T03:55:37.979Z,101387.41
2023-02-07T03:59:42.517Z,101404.77
2023-02-07T04:03:31.477Z,101409.52
2023-02-07T04:07:36.362Z,101416.23
2023-02-07T04:11:27.512Z,101414.38
2023-02-07T04:15:16.639Z,101418.13
2023-02-07T04:18:59.774Z,101421.34
2023-02-07T04:22:48.519Z,101422.33
2023-02-07T04:26:51.548Z,101425.89
2023-02-07T04:30:45.210Z,101426.84
2023-02-07T04:34:37.555Z,101429.56
2023-02-07T04:45:15.664Z,101429.91
2023-02-07T04:48:59.631Z,101432.80
2023-02-07T04:56:36.094Z,101443.98
2023-02-07T05:00:23.650Z,101443.08
2023-02-07T05:04:27.560Z,101452.08
2023-02-07T05:08:16.672Z,101457.80
2023-02-07T05:12:15.643Z,101461.23
2023-02-07T05:16:00.641Z,101454.92
2023-02-07T05:19:47.944Z,101457.96
2023-02-07T05:23:57.632Z,101451.23
2023-02-07T05:27:44.803Z,101452.21
2023-02-07T05:31:33.083Z,101450.70
2023-02-07T05:35:16.606Z,101448.34
2023-02-07T05:39:00.664Z,101447.11
2023-02-07T05:42:40.638Z,101444.48
2023-02-07T05:46:29.579Z,101433.25
2023-02-07T05:53:42.599Z,101441.63
2023-02-07T05:57:40.668Z,101440.98
2023-02-07T06:01:43.589Z,101446.23
2023-02-07T06:05:33.618Z,101454.27
2023-02-07T06:09:23.659Z,101458.38
2023-02-07T06:13:28.736Z,101457.19
2023-02-07T06:17:22.815Z,101460.67
2023-02-07T06:25:13.608Z,101462.63
2023-02-07T06:35:50.833Z,101477.65
2023-02-07T06:39:29.053Z,101487.07
2023-02-07T06:43:13.767Z,101484.95
2023-02-07T06:47:00.798Z,101485.27
2023-02-07T06:50:56.014Z,101486.88
2023-02-07T06:54:43.703Z,101488.91
2023-02-07T06:58:41.378Z,101493.37
2023-02-07T07:06:30.664Z,101505.42
2023-02-07T07:10:16.763Z,101515.85
2023-02-07T07:14:05.698Z,101519.77
2023-02-07T07:17:59.535Z,101516.43
2023-02-07T07:22:08.566Z,101516.76
2023-02-07T07:29:57.740Z,101512.52
2023-02-07T07:37:43.700Z,101509.99
2023-02-07T07:41:37.634Z,101509.30
2023-02-07T07:45:09.692Z,101513.42
2023-02-07T07:48:59.704Z,101513.17
2023-02-07T07:52:55.615Z,101512.83
2023-02-07T07:56:46.692Z,101513.06
2023-02-07T08:00:47.808Z,101517.62
2023-02-07T08:12:26.692Z,101529.68
2023-02-07T08:16:09.637Z,101526.48
2023-02-07T08:19:56.724Z,101525.54
2023-02-07T08:23:38.761Z,101525.81
2023-02-07T08:27:50.378Z,101525.89
2023-02-07T08:42:41.803Z,101522.64
2023-02-07T08:46:38.713Z,101521.24
2023-02-07T08:57:55.732Z,101517.15
2023-02-07T09:01:54.856Z,101519.91
2023-02-07T09:17:45.699Z,101517.17
2023-02-07T09:28:46.677Z,101500.42
2023-02-07T09:32:26.769Z,101496.73
2023-02-07T09:36:54.760Z,101504.84
2023-02-07T09:44:20.806Z,101521.67
2023-02-07T09:48:19.762Z,101522.23
2023-02-07T09:51:58.735Z,101524.02
2023-02-07T09:55:51.999Z,101525.50
2023-02-07T09:59:34.708Z,101517.12
2023-02-07T10:03:24.796Z,101511.52
2023-02-07T10:07:30.792Z,101515.11
2023-02-07T10:11:18.739Z,101510.42
2023-02-07T10:15:03.761Z,101508.11
2023-02-07T10:18:58.738Z,101498.15
2023-02-07T10:22:44.752Z,101491.97
2023-02-07T10:26:46.765Z,101483.69
2023-02-07T10:39:09.846Z,101476.79
2023-02-07T10:42:51.207Z,101489.94
2023-02-07T10:46:50.868Z,101487.27
2023-02-07T10:50:41.207Z,101486.35
2023-02-07T10:54:38.991Z,101487.07
2023-02-07T10:58:38.584Z,101488.14
2023-02-07T11:02:18.842Z,101483.78
2023-02-07T11:06:02.906Z,101488.09
2023-02-07T11:10:01.701Z,101490.40
2023-02-07T11:13:42.869Z,101494.93
2023-02-07T11:21:24.158Z,101498.39
2023-02-07T11:25:13.126Z,101500.89
2023-02-07T11:29:02.101Z,101503.19
2023-02-07T11:36:49.158Z,101507.55
2023-02-07T11:40:46.460Z,101505.27
2023-02-07T11:48:36.671Z,101509.45
2023-02-07T11:52:29.142Z,101507.20
2023-02-07T11:56:06.152Z,101511.41
2023-02-07T12:00:11.056Z,101511.92
2023-02-07T12:04:08.142Z,101525.30
2023-02-07T12:08:10.125Z,101526.63
2023-02-07T12:12:14.731Z,101528.04
2023-02-07T12:21:27.142Z,101510.65
2023-02-07T12:30:00.159Z,101490.53
2023-02-07T12:37:58.093Z,101491.48
2023-02-07T12:45:49.131Z,101500.69
2023-02-07T12:49:44.188Z,101502.18
2023-02-07T12:57:30.919Z,101510.42
2023-02-07T13:01:54.107Z,101506.25
2023-02-07T13:05:34.927Z,101507.12
2023-02-07T13:09:25.892Z,101515.05
2023-02-07T13:13:10.879Z,101526.70
2023-02-07T13:17:28.612Z,101532.23
2023-02-07T13:26:07.670Z,101533.11
2023-02-07T13:30:09.876Z,101527.48
2023-02-07T13:34:05.911Z,101526.91
2023-02-07T13:37:43.930Z,101530.02
2023-02-07T13:41:41.670Z,101535.20
2023-02-07T13:45:39.171Z,101533.48
2023-02-07T13:56:57.561Z,101555.07
2023-02-07T14:00:41.955Z,101559.64
2023-02-07T14:04:47.804Z,101559.36
2023-02-07T14:21:16.074Z,101596.14
2023-02-07T14:25:46.209Z,101603.61
2023-02-07T14:29:22.272Z,101608.20
2023-02-07T14:33:13.213Z,101611.72
2023-02-07T14:36:47.238Z,101618.16
2023-02-07T14:40:30.158Z,101620.67
2023-02-07T14:44:23.752Z,101634.81
2023-02-07T14:51:26.223Z,101644.16
2023-02-07T14:59:13.202Z,101661.70
2023-02-07T15:03:09.206Z,101675.40
2023-02-07T15:07:06.098Z,101681.64
2023-02-07T15:10:53.406Z,101694.42
2023-02-07T15:18:26.218Z,101703.48
2023-02-07T15:37:05.377Z,101726.96
2023-02-07T15:41:09.257Z,101733.42
2023-02-07T15:49:09.158Z,101749.95
2023-02-07T15:53:13.397Z,101761.15
2023-02-07T15:56:54.308Z,101762.82
2023-02-07T16:08:57.269Z,101785.85
2023-02-07T16:13:10.133Z,101789.08
2023-02-07T16:17:16.122Z,101797.95
2023-02-07T16:24:40.404Z,101802.45
2023-02-07T16:32:03.421Z,101814.44
2023-02-07T16:36:13.316Z,101811.89
2023-02-07T16:41:40.393Z,101812.77
2023-02-07T16:48:44.392Z,101821.81
2023-02-07T17:03:59.461Z,101848.34
2023-02-07T17:11:23.573Z,101862.36
2023-02-07T17:15:00.729Z,101866.03
2023-02-07T17:51:59.354Z,101890.06
2023-02-07T17:55:38.383Z,101902.38
2023-02-07T17:59:25.208Z,101910.92
2023-02-07T18:03:46.339Z,101912.80
2023-02-07T18:11:23.268Z,101924.14
2023-02-07T18:21:14.526Z,101947.20
2023-02-07T18:32:22.414Z,101963.27
2023-02-07T18:36:02.400Z,101962.83
2023-02-07T18:39:45.337Z,101970.89
2023-02-07T18:43:40.537Z,101974.49
2023-02-07T18:47:40.597Z,101990.14
2023-02-07T18:55:15.442Z,102004.80
2023-02-07T18:58:55.416Z,102015.42
2023-02-07T19:04:09.109Z,102022.28
2023-02-07T19:07:56.197Z,102035.30
2023-02-07T19:11:41.158Z,102037.66
2023-02-07T19:15:27.156Z,102046.04
2023-02-07T19:23:14.123Z,102043.23
2023-02-07T19:34:06.060Z,102062.62
2023-02-07T19:37:52.106Z,102066.12
2023-02-07T19:41:35.105Z,102076.06
2023-02-07T19:45:19.158Z,102075.05
2023-02-07T19:49:21.106Z,102071.58
2023-02-07T19:53:09.454Z,102069.97
2023-02-07T20:00:18.128Z,102076.88
2023-02-07T20:12:01.944Z,102086.60
2023-02-07T20:19:41.192Z,102091.26
2023-02-07T20:23:23.192Z,102099.45
2023-02-07T20:27:14.579Z,102102.32
2023-02-07T20:31:01.416Z,102106.70
2023-02-07T20:34:54.208Z,102113.54
2023-02-07T20:38:52.122Z,102120.95
2023-02-07T20:42:34.204Z,102121.23
2023-02-07T20:46:20.164Z,102122.17
2023-02-07T20:50:02.310Z,102127.34
2023-02-07T20:54:01.254Z,102143.04
2023-02-07T20:57:53.211Z,102146.16
2023-02-07T21:01:50.290Z,102157.61
2023-02-07T21:05:34.294Z,102158.98
2023-02-07T21:09:25.374Z,102163.06
2023-02-07T21:13:04.260Z,102162.88
2023-02-07T21:16:52.348Z,102163.92
2023-02-07T21:20:36.272Z,102164.84
2023-02-07T21:24:22.156Z,102173.23
2023-02-07T21:32:05.690Z,102189.38
2023-02-07T21:35:46.134Z,102193.52
2023-02-07T21:39:26.146Z,102203.27
2023-02-07T21:43:10.200Z,102202.39
2023-02-07T21:50:33.200Z,102210.80
2023-02-07T21:58:01.190Z,102216.86
2023-02-07T22:01:41.405Z,102222.11
2023-02-07T22:05:30.186Z,102225.77
2023-02-07T22:09:54.584Z,102230.66
2023-02-07T22:17:29.168Z,102238.70
2023-02-07T22:21:12.254Z,102236.80
2023-02-07T22:28:38.294Z,102247.69
2023-02-07T22:32:22.248Z,102248.33
2023-02-07T22:36:11.222Z,102238.08
2023-02-07T22:40:04.822Z,102241.80
2023-02-07T22:43:43.237Z,102241.76
2023-02-07T22:55:06.261Z,102238.52
2023-02-07T22:58:47.201Z,102246.33
2023-02-07T23:02:32.152Z,102247.46
2023-02-07T23:06:14.302Z,102243.66
2023-02-07T23:09:59.364Z,102253.69
2023-02-07T23:13:41.210Z,102260.69
2023-02-07T23:17:27.202Z,102258.88
2023-02-07T23:21:17.317Z,102261.51
2023-02-07T23:28:52.244Z,102267.06
2023-02-07T23:36:02.241Z,102271.91
2023-02-07T23:39:48.279Z,102277.92
2023-02-07T23:43:32.302Z,102273.83
2023-02-07T23:47:15.218Z,102280.28
2023-02-07T23:51:00.453Z,102282.54
2023-02-07T23:54:45.204Z,102287.84
2023-02-07T23:58:28.324Z,102288.06
